Time;durP1;ratioP1;P1;durP2;ratioP2;P2;SDS_P1;SDS_P2;PMS_P1;PMS_P2;Temp;Humidity;BMP_temperature;BMP_pressure;BME280_temperature;BME280_humidity;BME280_pressure;Samples;Min_cycle;Max_cycle;Signal;HPM_P1;HPM_P2
2023/03/30 00:00:21;;;;;;;8.87;3.10;;;;;;;17.77;57.10;99897.00;5058308;28;20195;-65
2023/03/30 00:02:49;;;;;;;12.53;2.90;;;;;;;17.78;57.46;99895.78;5037775;28;20179;-66
2023/03/30 00:05:16;;;;;;;11.37;3.00;;;;;;;17.81;56.98;99899.91;5066728;28;20448;-67
2023/03/30 00:07:41;;;;;;;11.50;3.10;;;;;;;17.82;57.07;99896.66;5049999;28;20826;-66
2023/03/30 00:10:09;;;;;;;14.03;3.43;;;;;;;17.83;57.09;99892.59;5068399;28;20425;-66
2023/03/30 00:12:34;;;;;;;14.17;3.80;;;;;;;17.82;57.19;99882.38;5067651;28;20190;-66
2023/03/30 00:14:59;;;;;;;13.03;3.50;;;;;;;17.83;57.28;99881.16;5054212;28;20446;-66
2023/03/30 00:17:25;;;;;;;9.93;3.97;;;;;;;17.83;57.04;99878.31;5048490;28;20176;-66
2023/03/30 00:19:50;;;;;;;8.43;3.00;;;;;;;17.79;57.31;99893.72;5066525;28;20210;-65
2023/03/30 00:22:16;;;;;;;10.53;3.13;;;;;;;17.80;57.67;99919.06;5068073;28;20207;-67
2023/03/30 00:24:41;;;;;;;11.47;2.63;;;;;;;17.80;57.15;99919.06;5067160;28;20186;-65
2023/03/30 00:27:07;;;;;;;10.53;3.67;;;;;;;17.78;57.20;99941.47;5068689;28;20179;-66
2023/03/30 00:29:32;;;;;;;10.30;3.30;;;;;;;17.78;57.48;99944.31;5065014;28;20221;-65
2023/03/30 00:31:58;;;;;;;11.00;3.03;;;;;;;17.79;57.42;99930.84;5052047;28;20194;-66
2023/03/30 00:34:23;;;;;;;15.43;3.87;;;;;;;17.78;57.33;99924.34;5069005;28;20178;-66
2023/03/30 00:36:52;;;;;;;10.17;2.60;;;;;;;17.77;57.72;99919.84;5069352;28;20168;-66
2023/03/30 00:39:17;;;;;;;8.23;2.97;;;;;;;17.78;57.74;99901.50;5048297;28;20560;-66
2023/03/30 00:41:43;;;;;;;9.40;3.13;;;;;;;17.77;57.62;99884.75;5067921;28;20425;-65
2023/03/30 00:44:47;;;;;;;7.60;2.80;;;;;;;17.76;57.61;99863.91;5068499;28;20972;-67
2023/03/30 00:47:13;;;;;;;9.57;3.23;;;;;;;17.77;57.72;99891.28;5055879;28;20209;-65
2023/03/30 00:49:40;;;;;;;12.03;3.80;;;;;;;17.79;57.62;99920.25;5048463;28;20418;-67
2023/03/30 00:52:07;;;;;;;11.67;3.10;;;;;;;17.80;56.90;99933.31;5030047;28;20227;-66
2023/03/30 00:54:34;;;;;;;8.37;2.60;;;;;;;17.81;57.63;99940.69;5051066;28;20461;-66
2023/03/30 00:56:59;;;;;;;11.80;3.80;;;;;;;17.80;57.98;99956.16;5060513;28;20928;-66
2023/03/30 00:59:25;;;;;;;10.10;4.07;;;;;;;17.77;57.67;99942.69;5068959;28;20191;-66
2023/03/30 01:01:50;;;;;;;7.40;2.43;;;;;;;17.78;57.86;99941.47;5041238;28;20650;-65
2023/03/30 01:04:16;;;;;;;10.87;3.50;;;;;;;17.76;58.05;99918.16;5038108;28;20240;-66
2023/03/30 01:06:42;;;;;;;10.17;3.10;;;;;;;17.78;57.90;99920.63;5068217;28;20201;-67
2023/03/30 01:09:07;;;;;;;9.13;3.47;;;;;;;17.79;57.60;99925.13;5053687;28;20176;-66
2023/03/30 01:11:33;;;;;;;8.30;2.93;;;;;;;17.78;57.92;99930.03;5049037;28;20180;-66
2023/03/30 01:14:00;;;;;;;9.13;3.17;;;;;;;17.78;57.79;99930.03;5052000;28;20529;-66
2023/03/30 01:16:35;;;;;;;9.40;3.77;;;;;;;17.78;57.92;99932.91;5068494;28;20174;-66
2023/03/30 01:19:38;;;;;;;12.00;3.00;;;;;;;17.79;57.82;99936.56;5068281;28;20904;-66
2023/03/30 01:22:15;;;;;;;5.47;2.40;;;;;;;17.78;57.95;99941.47;5049457;28;20406;-66
2023/03/30 01:25:01;;;;;;;10.93;2.83;;;;;;;17.77;57.99;99954.09;5034629;28;20467;-65
2023/03/30 01:28:00;;;;;;;5.90;2.73;;;;;;;17.78;57.79;99947.19;5031246;28;20464;-67
2023/03/30 01:30:49;;;;;;;10.60;2.53;;;;;;;17.78;58.20;99954.91;5048840;28;20834;-65
2023/03/30 01:33:36;;;;;;;8.57;2.80;;;;;;;17.77;57.94;99958.97;5048961;28;20992;-65
2023/03/30 01:36:27;;;;;;;6.57;2.50;;;;;;;17.77;57.79;99961.81;5050750;28;21318;-66
2023/03/30 01:39:13;;;;;;;6.23;2.63;;;;;;;17.78;57.76;99952.06;5042150;28;20454;-67
2023/03/30 01:41:57;;;;;;;8.20;2.80;;;;;;;17.77;58.00;99942.69;5048155;28;20414;-66
2023/03/30 01:44:42;;;;;;;9.60;3.50;;;;;;;17.76;58.04;99923.06;5050218;28;20430;-66
2023/03/30 01:47:16;;;;;;;12.07;3.40;;;;;;;17.76;58.18;99929.59;5030181;28;20441;-66
2023/03/30 01:50:03;;;;;;;9.27;3.30;;;;;;;17.78;58.02;99934.91;5036699;28;20866;-67
2023/03/30 01:52:36;;;;;;;12.70;3.53;;;;;;;17.76;58.12;99926.72;5043428;28;20481;-66
2023/03/30 01:55:12;;;;;;;9.60;3.03;;;;;;;17.74;58.18;99906.31;5034562;28;20414;-66
2023/03/30 01:57:50;;;;;;;10.97;3.50;;;;;;;17.72;57.98;99900.19;5049963;28;20420;-66
2023/03/30 02:00:18;;;;;;;8.40;3.40;;;;;;;17.72;58.17;99885.06;5063925;28;20437;-66
2023/03/30 02:02:55;;;;;;;7.40;2.67;;;;;;;17.73;57.87;99853.28;5032850;28;20417;-65
2023/03/30 02:05:21;;;;;;;10.00;2.80;;;;;;;17.73;57.81;99867.56;5065547;28;20425;-66
2023/03/30 02:07:54;;;;;;;7.37;3.10;;;;;;;17.74;58.04;99866.34;5036229;28;20556;-66
2023/03/30 02:10:21;;;;;;;16.87;3.70;;;;;;;17.72;57.87;99856.53;5050647;28;20483;-65
2023/03/30 02:12:47;;;;;;;9.30;2.87;;;;;;;17.73;57.96;99838.19;5049270;28;20767;-67
2023/03/30 02:15:13;;;;;;;7.07;2.97;;;;;;;17.82;57.67;99821.59;5034481;28;20446;-66
2023/03/30 02:17:38;;;;;;;6.47;2.33;;;;;;;17.84;57.69;99817.13;5029717;28;20207;-67
2023/03/30 02:20:07;;;;;;;9.73;3.00;;;;;;;17.84;57.67;99848.53;5049850;28;20846;-66
2023/03/30 02:22:33;;;;;;;8.23;2.80;;;;;;;17.86;57.77;99845.31;5047620;28;20187;-65
2023/03/30 02:24:59;;;;;;;7.40;2.47;;;;;;;17.80;57.80;99833.38;5032065;28;20422;-66
2023/03/30 02:27:25;;;;;;;7.00;3.30;;;;;;;17.83;57.69;99817.50;5050028;28;20183;-66
2023/03/30 02:29:51;;;;;;;11.17;3.80;;;;;;;17.79;58.11;99805.22;5030120;28;20167;-66
2023/03/30 02:32:21;;;;;;;7.20;2.80;;;;;;;17.76;57.96;99812.53;5034253;28;20632;-66
2023/03/30 02:35:07;;;;;;;10.87;2.97;;;;;;;17.75;58.11;99805.19;5048348;28;20939;-66
2023/03/30 02:37:48;;;;;;;9.30;3.80;;;;;;;17.76;58.17;99817.44;5053844;28;20417;-66
2023/03/30 02:40:31;;;;;;;10.67;2.77;;;;;;;17.75;58.14;99812.94;5056725;28;20583;-65
2023/03/30 02:43:14;;;;;;;5.67;2.47;;;;;;;17.75;58.28;99822.31;5053341;28;20464;-65
2023/03/30 02:45:56;;;;;;;8.13;2.20;;;;;;;17.76;58.47;99829.66;5068381;28;20529;-66
2023/03/30 02:49:21;;;;;;;6.80;3.10;;;;;;;17.77;58.14;99825.63;5034821;28;20398;-67
2023/03/30 02:52:15;;;;;;;7.43;2.43;;;;;;;17.78;58.19;99807.28;5037392;28;20479;-65
2023/03/30 02:54:46;;;;;;;6.93;2.70;;;;;;;17.75;58.00;99792.94;5019820;28;20483;-67
2023/03/30 02:57:18;;;;;;;7.67;3.37;;;;;;;17.74;58.54;99794.97;5033579;28;20406;-66
2023/03/30 03:00:01;;;;;;;6.50;2.60;;;;;;;17.77;58.33;99797.06;5047119;28;20465;-66
2023/03/30 03:02:33;;;;;;;8.07;2.90;;;;;;;17.75;58.22;99770.91;5000713;28;20781;-66
2023/03/30 03:05:02;;;;;;;9.57;3.00;;;;;;;17.76;58.24;99781.13;5044695;28;20477;-66
2023/03/30 03:07:31;;;;;;;8.20;2.60;;;;;;;17.76;58.32;99786.84;5052562;28;20464;-66
2023/03/30 03:09:56;;;;;;;5.50;2.20;;;;;;;17.77;58.42;99785.66;5070740;28;20607;-66
2023/03/30 03:12:22;;;;;;;10.20;2.73;;;;;;;17.75;58.22;99790.91;5070395;28;20414;-67
2023/03/30 03:14:47;;;;;;;7.47;2.83;;;;;;;17.77;58.48;99782.78;5053202;28;20187;-65
2023/03/30 03:17:15;;;;;;;7.43;2.53;;;;;;;17.73;58.24;99773.34;5050219;28;20186;-66
2023/03/30 03:19:41;;;;;;;8.53;2.60;;;;;;;17.77;58.45;99784.81;5051886;28;20210;-66
2023/03/30 03:22:06;;;;;;;6.40;2.27;;;;;;;17.76;58.31;99768.91;5050052;28;20785;-66
2023/03/30 03:24:32;;;;;;;8.60;2.90;;;;;;;17.76;58.22;99775.41;5052965;28;20905;-61
2023/03/30 03:26:58;;;;;;;9.67;2.60;;;;;;;17.75;58.19;99770.13;5068047;28;20190;-62
2023/03/30 03:29:23;;;;;;;7.60;2.50;;;;;;;17.75;58.31;99753.78;5069696;28;20405;-62
2023/03/30 03:31:49;;;;;;;7.13;2.60;;;;;;;17.75;58.25;99759.50;5070394;28;20175;-61
2023/03/30 03:34:14;;;;;;;7.13;2.23;;;;;;;17.75;58.47;99752.97;5067030;28;20182;-61
2023/03/30 03:36:42;;;;;;;9.17;2.73;;;;;;;17.75;58.26;99742.38;5070458;28;20160;-61
2023/03/30 03:39:07;;;;;;;7.70;2.60;;;;;;;17.75;58.26;99730.16;5032823;28;20295;-61
2023/03/30 03:41:33;;;;;;;9.33;2.67;;;;;;;17.76;58.70;99734.63;5052391;28;20405;-61
2023/03/30 03:43:58;;;;;;;8.40;2.60;;;;;;;17.74;58.19;99735.03;5070993;28;20187;-62
2023/03/30 03:46:24;;;;;;;11.80;3.83;;;;;;;17.75;58.31;99730.94;5053841;28;20943;-61
2023/03/30 03:48:49;;;;;;;8.07;2.60;;;;;;;17.76;58.44;99720.38;5050952;28;20164;-61
2023/03/30 03:51:15;;;;;;;8.07;2.60;;;;;;;17.75;58.24;99713.81;5052851;28;20615;-62
2023/03/30 03:53:40;;;;;;;7.13;2.10;;;;;;;17.72;58.28;99708.91;5050010;28;20190;-62
2023/03/30 03:56:06;;;;;;;7.13;2.30;;;;;;;17.71;58.44;99684.41;5070498;28;20171;-61
2023/03/30 03:58:31;;;;;;;8.63;2.67;;;;;;;17.69;58.52;99683.97;5066441;28;20202;-62
2023/03/30 04:01:01;;;;;;;7.47;2.50;;;;;;;17.71;58.34;99687.25;5066483;28;20217;-61
2023/03/30 04:03:26;;;;;;;6.57;2.63;;;;;;;17.70;58.76;99697.03;5064213;28;20175;-61
2023/03/30 04:05:52;;;;;;;7.53;3.17;;;;;;;17.70;58.23;99668.50;5067052;28;20437;-61
2023/03/30 04:08:17;;;;;;;6.03;2.60;;;;;;;17.72;58.49;99651.81;5065652;28;20193;-61
2023/03/30 04:10:43;;;;;;;7.07;2.40;;;;;;;17.77;58.09;99644.91;5062283;28;20170;-62
2023/03/30 04:13:08;;;;;;;6.87;2.57;;;;;;;17.71;58.45;99621.59;5068062;28;20179;-61
2023/03/30 04:15:34;;;;;;;4.37;1.63;;;;;;;17.72;58.11;99631.00;5051751;28;20181;-62
2023/03/30 04:18:00;;;;;;;8.60;2.53;;;;;;;17.72;58.18;99620.41;5044942;28;20221;-61
2023/03/30 04:20:26;;;;;;;7.03;2.53;;;;;;;17.86;59.74;99622.59;5063090;28;20657;-60
2023/03/30 04:22:52;;;;;;;16.07;3.90;;;;;;;18.00;60.94;99631.25;5051387;28;21269;-61
2023/03/30 04:25:20;;;;;;;8.10;3.00;;;;;;;18.35;63.04;99632.44;5047744;28;20450;-61
2023/03/30 04:27:49;;;;;;;15.97;4.73;;;;;;;18.51;64.55;99630.13;5050440;28;20176;-61
2023/03/30 04:30:14;;;;;;;17.27;4.67;;;;;;;18.34;63.82;99639.38;5047490;28;20502;-61
2023/03/30 04:32:40;;;;;;;16.30;4.07;;;;;;;18.22;63.42;99631.06;5029546;28;20509;-61
2023/03/30 04:35:06;;;;;;;19.90;4.20;;;;;;;18.21;63.45;99634.34;5064834;28;20197;-61
2023/03/30 04:37:32;;;;;;;13.37;3.90;;;;;;;18.21;63.75;99632.28;5055633;28;20183;-61
2023/03/30 04:39:58;;;;;;;17.73;4.50;;;;;;;18.22;63.62;99630.25;5029312;28;20449;-61
2023/03/30 04:42:32;;;;;;;16.47;3.83;;;;;;;18.21;63.75;99618.00;5043675;28;20245;-60
2023/03/30 04:45:01;;;;;;;23.33;4.17;;;;;;;18.26;63.08;99620.50;5061002;28;20489;-60
2023/03/30 04:47:27;;;;;;;17.73;4.23;;;;;;;18.30;63.86;99618.50;5051687;28;20939;-60
2023/03/30 04:49:52;;;;;;;15.90;4.43;;;;;;;18.33;63.63;99622.63;5069774;28;20401;-59
2023/03/30 04:52:18;;;;;;;17.50;3.83;;;;;;;18.33;63.29;99614.06;5065216;28;20223;-60
2023/03/30 04:54:44;;;;;;;13.70;3.83;;;;;;;18.30;63.19;99615.63;5068835;28;20168;-61
2023/03/30 04:57:09;;;;;;;11.60;3.83;;;;;;;18.29;63.17;99622.56;5054944;28;20210;-62
2023/03/30 04:59:35;;;;;;;17.03;3.60;;;;;;;18.30;62.89;99644.22;5048735;28;20626;-62
2023/03/30 05:02:02;;;;;;;13.53;4.23;;;;;;;18.41;62.42;99716.59;5058200;28;20171;-61
2023/03/30 05:04:27;;;;;;;15.13;4.40;;;;;;;18.43;62.22;99764.78;5073315;28;20174;-61
2023/03/30 05:06:53;;;;;;;10.40;4.17;;;;;;;18.48;63.19;99802.44;5061111;28;20460;-60
2023/03/30 05:09:18;;;;;;;18.80;5.27;;;;;;;18.59;63.59;99785.34;5067535;28;20180;-61
2023/03/30 05:11:44;;;;;;;14.43;4.17;;;;;;;18.49;63.31;99789.78;5032257;28;20187;-62
2023/03/30 05:14:09;;;;;;;16.73;4.00;;;;;;;18.52;63.89;99797.53;5037214;28;20221;-60
2023/03/30 05:16:35;;;;;;;11.93;4.30;;;;;;;18.56;63.36;99812.69;5059552;28;20168;-60
2023/03/30 05:19:01;;;;;;;23.27;4.00;;;;;;;18.53;64.35;99799.22;5057606;28;20203;-61
2023/03/30 05:21:26;;;;;;;14.80;3.83;;;;;;;18.48;63.99;99799.56;5068834;28;20444;-61
2023/03/30 05:23:52;;;;;;;17.97;4.10;;;;;;;18.42;64.16;99808.88;5046230;28;20187;-61
2023/03/30 05:26:17;;;;;;;9.57;3.87;;;;;;;18.40;63.24;99800.69;5044812;28;20194;-59
2023/03/30 05:28:42;;;;;;;10.67;3.20;;;;;;;18.41;62.88;99807.25;5068086;28;20184;-61
2023/03/30 05:31:08;;;;;;;15.60;4.53;;;;;;;18.36;62.53;99819.84;5057877;28;20188;-60
2023/03/30 05:33:33;;;;;;;11.90;3.73;;;;;;;18.38;62.34;99840.28;5051156;28;20221;-61
2023/03/30 05:35:59;;;;;;;14.73;3.13;;;;;;;18.36;62.14;99873.31;5042888;28;20180;-61
2023/03/30 05:38:25;;;;;;;11.93;3.80;;;;;;;18.37;62.06;99880.69;5049935;28;20690;-60
2023/03/30 05:40:53;;;;;;;17.63;3.40;;;;;;;18.33;62.03;99872.06;5038202;28;20182;-61
2023/03/30 05:43:19;;;;;;;18.57;4.27;;;;;;;18.32;62.16;99881.00;5060531;28;20714;-62
2023/03/30 05:45:45;;;;;;;16.60;3.80;;;;;;;18.31;62.84;99891.59;5051161;28;20429;-62
2023/03/30 05:48:10;;;;;;;15.23;3.93;;;;;;;18.29;63.07;99894.03;5040005;28;20197;-61
2023/03/30 05:50:36;;;;;;;23.23;3.70;;;;;;;18.33;63.26;99888.38;5069772;28;20186;-61
2023/03/30 05:53:01;;;;;;;18.60;3.90;;;;;;;18.35;63.45;99874.50;5052962;28;20227;-60
2023/03/30 05:55:26;;;;;;;13.13;3.20;;;;;;;18.34;63.61;99876.56;5050423;28;20809;-60
2023/03/30 05:57:52;;;;;;;13.67;3.73;;;;;;;18.34;63.67;99878.59;5047831;28;20591;-61
2023/03/30 06:00:20;;;;;;;15.00;4.73;;;;;;;18.35;63.33;99894.53;5049976;28;20206;-60
2023/03/30 06:02:45;;;;;;;16.17;4.00;;;;;;;18.31;63.02;99925.09;5067308;28;20186;-61
2023/03/30 06:05:11;;;;;;;19.93;4.70;;;;;;;18.31;63.20;99930.78;5069585;28;21049;-60
2023/03/30 06:07:36;;;;;;;19.07;4.10;;;;;;;18.32;63.10;99923.88;5046131;28;20531;-61
2023/03/30 06:10:03;;;;;;;12.60;3.30;;;;;;;18.30;63.15;99897.69;5068959;28;20170;-61
2023/03/30 06:12:29;;;;;;;15.03;4.33;;;;;;;18.28;62.93;99912.41;5067667;28;20173;-60
2023/03/30 06:14:55;;;;;;;23.07;3.77;;;;;;;18.27;62.86;99962.16;5069725;28;20915;-61
2023/03/30 06:17:20;;;;;;;17.00;3.60;;;;;;;18.28;63.00;99978.13;5055079;28;20442;-61
2023/03/30 06:19:46;;;;;;;15.27;3.60;;;;;;;18.28;62.85;99971.56;5049708;28;20187;-60
2023/03/30 06:22:11;;;;;;;17.07;3.20;;;;;;;18.24;62.82;99968.66;5059350;28;20174;-60
2023/03/30 06:24:37;;;;;;;9.53;3.20;;;;;;;18.22;62.83;99936.78;5069827;28;20642;-61
2023/03/30 06:27:02;;;;;;;13.23;4.03;;;;;;;18.21;62.60;99932.28;5069907;28;20190;-61
2023/03/30 06:29:28;;;;;;;14.43;3.70;;;;;;;18.22;62.63;99953.91;5051350;28;20199;-61
2023/03/30 06:31:53;;;;;;;11.17;3.30;;;;;;;18.21;62.75;99965.75;5048346;28;20271;-62
2023/03/30 06:34:19;;;;;;;10.23;3.43;;;;;;;18.20;62.83;99979.22;5017243;28;20195;-62
2023/03/30 06:36:45;;;;;;;9.10;3.30;;;;;;;18.19;62.66;99960.44;5049357;28;20160;-62
2023/03/30 06:39:11;;;;;;;11.77;4.10;;;;;;;18.20;62.23;99962.06;5067071;28;20202;-62
2023/03/30 06:41:36;;;;;;;7.87;3.07;;;;;;;18.19;62.59;99968.16;5058676;28;20805;-60
2023/03/30 06:44:02;;;;;;;11.97;3.23;;;;;;;18.17;62.60;99962.03;5067876;28;20185;-61
2023/03/30 06:46:27;;;;;;;13.70;3.20;;;;;;;18.17;62.49;99947.75;5051052;28;20264;-62
2023/03/30 06:48:53;;;;;;;16.87;3.17;;;;;;;18.16;62.31;99924.06;5029879;28;20168;-60
2023/03/30 06:51:18;;;;;;;12.40;3.73;;;;;;;18.16;62.25;99928.97;5028965;28;20172;-61
2023/03/30 06:53:44;;;;;;;9.00;2.97;;;;;;;18.14;62.53;99943.63;5067105;28;20171;-60
2023/03/30 06:56:10;;;;;;;16.70;3.67;;;;;;;18.15;62.39;99948.13;5054222;28;20180;-60
2023/03/30 06:58:36;;;;;;;11.47;3.43;;;;;;;18.15;62.37;99947.28;5048369;28;20282;-60
2023/03/30 07:01:09;;;;;;;8.10;3.17;;;;;;;18.15;62.52;99941.56;5049429;28;20502;-60
2023/03/30 07:03:34;;;;;;;10.50;3.53;;;;;;;18.14;62.17;99942.78;5049379;28;20172;-60
2023/03/30 07:06:00;;;;;;;10.17;2.83;;;;;;;18.13;62.53;99944.00;5083353;28;20554;-61
2023/03/30 07:08:25;;;;;;;8.43;3.03;;;;;;;18.16;62.18;99951.81;5077371;28;20182;-61
2023/03/30 07:10:51;;;;;;;6.73;2.57;;;;;;;18.15;62.32;99979.56;5068220;28;20281;-60
2023/03/30 07:13:17;;;;;;;14.30;3.57;;;;;;;18.17;62.21;100004.88;5065558;28;20183;-60
2023/03/30 07:15:43;;;;;;;9.03;2.93;;;;;;;18.16;62.13;100026.91;5052088;28;20413;-61
2023/03/30 07:18:08;;;;;;;13.53;3.90;;;;;;;18.15;62.21;100025.25;5071505;28;20174;-61
2023/03/30 07:20:34;;;;;;;11.73;3.20;;;;;;;18.15;62.23;100039.53;5072417;28;20405;-61
2023/03/30 07:23:00;;;;;;;16.20;3.10;;;;;;;18.14;62.21;100048.50;5065475;28;20191;-61
2023/03/30 07:25:26;;;;;;;9.33;3.20;;;;;;;18.14;62.15;100035.03;5052994;28;20203;-61
2023/03/30 07:27:51;;;;;;;7.53;2.70;;;;;;;18.11;61.86;100024.38;5052670;28;20398;-61
2023/03/30 07:30:18;;;;;;;9.63;3.33;;;;;;;18.12;62.03;99999.50;5034696;28;20163;-61
2023/03/30 07:32:44;;;;;;;15.80;3.43;;;;;;;18.11;62.18;100001.53;5055400;28;20237;-61
2023/03/30 07:35:09;;;;;;;10.97;3.23;;;;;;;18.10;62.05;99991.31;5052698;28;20423;-61
2023/03/30 07:37:37;;;;;;;9.33;2.90;;;;;;;18.10;62.00;100004.75;5054837;28;20187;-61
2023/03/30 07:40:04;;;;;;;11.07;3.23;;;;;;;18.09;61.75;100003.94;5052615;28;20564;-60
2023/03/30 07:42:30;;;;;;;7.60;2.83;;;;;;;18.10;62.14;99991.31;5034807;28;20403;-61
2023/03/30 07:44:55;;;;;;;10.60;3.13;;;;;;;18.08;61.96;99973.75;5052641;28;20425;-61
2023/03/30 07:47:21;;;;;;;12.47;3.03;;;;;;;18.09;61.67;99949.69;5048058;28;20187;-61
2023/03/30 07:49:46;;;;;;;6.57;2.63;;;;;;;18.09;61.83;99966.81;5072351;28;20163;-61
2023/03/30 07:52:12;;;;;;;7.97;3.30;;;;;;;18.10;61.75;99959.88;5068316;28;20230;-60
2023/03/30 07:54:38;;;;;;;11.70;3.20;;;;;;;18.06;61.97;99959.00;5055224;28;20179;-61
2023/03/30 07:57:03;;;;;;;6.77;2.20;;;;;;;18.09;61.70;99951.69;5071819;28;20409;-63
2023/03/30 07:59:29;;;;;;;5.50;2.67;;;;;;;18.08;61.83;99956.59;5051205;28;20210;-62
2023/03/30 08:01:55;;;;;;;9.50;3.00;;;;;;;18.09;61.98;99949.69;5070764;28;20174;-62
2023/03/30 08:04:20;;;;;;;13.00;3.90;;;;;;;18.08;61.91;99952.91;5056778;28;20185;-62
2023/03/30 08:06:46;;;;;;;8.57;3.10;;;;;;;18.07;62.04;99951.28;5064677;28;20203;-61
2023/03/30 08:09:12;;;;;;;10.57;3.40;;;;;;;18.07;61.97;99942.69;5054100;28;20167;-61
2023/03/30 08:11:37;;;;;;;15.00;3.30;;;;;;;18.08;61.87;99941.47;5053992;28;20173;-61
2023/03/30 08:14:03;;;;;;;8.93;2.53;;;;;;;18.07;61.82;99931.28;5040538;28;20635;-60
2023/03/30 08:16:28;;;;;;;7.83;2.33;;;;;;;18.06;61.55;99941.06;5072078;28;20171;-61
2023/03/30 08:18:54;;;;;;;10.70;3.10;;;;;;;18.07;61.55;99932.06;5068361;28;20231;-61
2023/03/30 08:21:24;;;;;;;8.87;3.37;;;;;;;18.07;61.73;99943.50;5053483;28;20271;-61
2023/03/30 08:23:50;;;;;;;6.27;2.37;;;;;;;18.05;61.84;99937.38;5071777;28;20187;-61
2023/03/30 08:26:16;;;;;;;7.77;2.10;;;;;;;18.07;61.83;99942.69;5072146;28;20744;-61
2023/03/30 08:28:42;;;;;;;8.53;2.27;;;;;;;18.06;61.77;99943.91;5061940;28;20511;-61
2023/03/30 08:31:09;;;;;;;8.90;3.13;;;;;;;18.07;61.80;99949.22;5063757;28;20761;-61
2023/03/30 08:33:35;;;;;;;9.30;2.87;;;;;;;18.09;61.67;99945.97;5071366;28;20159;-61
2023/03/30 08:36:00;;;;;;;8.20;3.10;;;;;;;18.09;61.49;99960.25;5070970;28;20421;-62
2023/03/30 08:38:26;;;;;;;9.73;3.13;;;;;;;18.06;61.52;99959.00;5044554;28;20728;-60
2023/03/30 08:40:51;;;;;;;8.83;2.60;;;;;;;18.09;61.70;99951.69;5067938;28;20182;-61
2023/03/30 08:43:29;;;;;;;5.90;2.47;;;;;;;18.08;61.48;99950.88;5062599;28;20184;-60
2023/03/30 08:45:57;;;;;;;10.17;3.57;;;;;;;18.07;61.66;99954.94;5050730;28;20163;-61
2023/03/30 08:48:24;;;;;;;14.00;3.03;;;;;;;18.08;61.37;99945.19;5044469;28;20836;-61
2023/03/30 08:51:14;;;;;;;9.90;3.07;;;;;;;18.05;61.49;99950.81;5042232;28;20496;-61
2023/03/30 08:53:40;;;;;;;12.03;3.17;;;;;;;18.07;61.66;99951.28;5054082;28;20466;-62
2023/03/30 08:56:20;;;;;;;10.93;3.53;;;;;;;18.06;61.56;99975.34;5056657;28;20534;-61
2023/03/30 08:59:12;;;;;;;9.27;2.90;;;;;;;18.05;61.72;99980.22;5050778;28;20643;-61
2023/03/30 09:02:14;;;;;;;13.40;3.00;;;;;;;18.05;61.79;100003.06;5042269;28;20446;-62
2023/03/30 09:05:00;;;;;;;8.10;2.93;;;;;;;18.05;61.74;100022.22;5042017;28;20854;-62
2023/03/30 09:07:28;;;;;;;10.60;4.00;;;;;;;18.04;61.79;100032.84;5068310;28;20448;-62
2023/03/30 09:09:55;;;;;;;8.13;3.20;;;;;;;18.05;61.58;100025.91;5064520;28;20426;-60
2023/03/30 09:12:45;;;;;;;8.27;3.07;;;;;;;18.06;61.71;100036.13;5048560;28;20521;-61
2023/03/30 09:15:34;;;;;;;6.00;2.73;;;;;;;18.03;61.40;100031.22;5050623;28;20425;-61
2023/03/30 09:18:09;;;;;;;9.50;2.90;;;;;;;18.04;61.50;100023.44;5049506;28;20818;-60
2023/03/30 09:20:36;;;;;;;13.80;3.57;;;;;;;18.05;61.47;100031.63;5053256;28;20871;-61
2023/03/30 09:23:01;;;;;;;12.67;3.30;;;;;;;18.03;61.62;100056.91;5051056;28;20406;-61
2023/03/30 09:25:43;;;;;;;10.33;3.07;;;;;;;18.03;61.35;100058.94;5052968;28;20488;-61
2023/03/30 09:28:23;;;;;;;7.40;3.20;;;;;;;18.02;61.61;100043.00;5062090;28;20183;-61
2023/03/30 09:30:56;;;;;;;11.53;2.80;;;;;;;18.01;61.52;100030.75;5017338;28;20406;-61
2023/03/30 09:33:25;;;;;;;10.50;2.60;;;;;;;18.02;61.65;100031.59;5017135;28;20398;-61
2023/03/30 09:36:13;;;;;;;8.40;3.83;;;;;;;18.00;61.44;100042.56;5051762;28;20437;-61
2023/03/30 09:38:40;;;;;;;9.40;2.67;;;;;;;18.02;61.67;100040.97;5031981;28;20486;-61
2023/03/30 09:41:20;;;;;;;6.97;2.33;;;;;;;18.01;61.58;100033.59;5064750;28;20429;-61
2023/03/30 09:43:46;;;;;;;5.00;2.23;;;;;;;18.02;61.31;100046.66;5059765;28;20441;-62
2023/03/30 09:46:13;;;;;;;5.90;2.57;;;;;;;18.05;61.42;100036.50;5016084;28;20405;-61
2023/03/30 09:48:42;;;;;;;11.93;2.63;;;;;;;18.05;61.37;100027.94;5053793;28;20179;-61
2023/03/30 09:51:21;;;;;;;10.37;3.10;;;;;;;18.04;61.60;100026.31;5050133;28;20497;-61
2023/03/30 09:53:48;;;;;;;8.47;2.77;;;;;;;18.03;61.55;100022.63;5032337;28;20430;-61
2023/03/30 09:56:35;;;;;;;5.60;2.13;;;;;;;18.03;61.59;100018.94;5049028;28;20953;-60
2023/03/30 09:59:31;;;;;;;6.23;2.47;;;;;;;18.03;61.25;100028.34;5062991;28;20471;-60
2023/03/30 10:02:12;;;;;;;8.30;2.63;;;;;;;18.02;61.44;100043.00;5052248;28;20486;-61
2023/03/30 10:04:51;;;;;;;8.53;2.80;;;;;;;18.05;61.50;100050.78;5053600;28;20942;-61
2023/03/30 10:07:28;;;;;;;7.63;2.80;;;;;;;18.02;61.55;100043.81;5090451;28;20439;-61
2023/03/30 10:09:54;;;;;;;5.77;2.17;;;;;;;18.01;61.67;100053.59;5072178;28;20466;-61
2023/03/30 10:12:21;;;;;;;9.07;2.60;;;;;;;18.01;61.50;100025.03;5053012;28;20418;-61
2023/03/30 10:14:46;;;;;;;11.10;3.30;;;;;;;18.00;61.37;100003.41;5052539;28;20529;-60
2023/03/30 10:17:19;;;;;;;6.27;2.53;;;;;;;17.99;61.30;100006.63;5015948;28;20480;-62
2023/03/30 10:19:45;;;;;;;8.53;2.43;;;;;;;18.00;61.47;99989.13;5050006;28;20191;-63
2023/03/30 10:22:17;;;;;;;6.87;2.77;;;;;;;18.01;61.52;99981.38;5051501;28;20568;-62
2023/03/30 10:24:54;;;;;;;8.80;3.33;;;;;;;18.01;61.41;99973.63;5069543;28;20238;-61
2023/03/30 10:27:24;;;;;;;17.10;3.90;;;;;;;18.00;61.35;99963.41;5067354;28;20563;-61
2023/03/30 10:29:51;;;;;;;11.40;2.90;;;;;;;18.02;61.54;99986.69;5017623;28;20422;-61
2023/03/30 10:32:18;;;;;;;6.50;2.40;;;;;;;18.01;61.22;100007.91;5032200;28;20898;-62
2023/03/30 10:34:48;;;;;;;8.93;2.83;;;;;;;18.02;61.32;100009.53;5034517;28;20892;-60
2023/03/30 10:37:17;;;;;;;8.77;2.60;;;;;;;18.02;61.54;100020.97;5050207;28;20485;-60
2023/03/30 10:39:43;;;;;;;6.00;3.10;;;;;;;18.03;61.00;100018.94;5034642;28;20985;-61
2023/03/30 10:42:16;;;;;;;9.97;3.00;;;;;;;18.03;61.42;100028.34;5029140;28;20473;-62
2023/03/30 10:44:52;;;;;;;7.23;2.17;;;;;;;18.04;61.46;100032.84;5049763;28;20167;-61
2023/03/30 10:47:30;;;;;;;9.90;3.07;;;;;;;18.05;61.19;100028.78;5024001;28;20785;-61
2023/03/30 10:50:31;;;;;;;10.47;3.00;;;;;;;18.03;61.21;100031.22;5070158;28;20503;-60
2023/03/30 10:53:15;;;;;;;3.80;1.80;;;;;;;18.03;61.49;100034.06;5072993;28;20468;-61
2023/03/30 10:56:05;;;;;;;6.40;2.53;;;;;;;18.02;61.37;100025.88;5063830;28;20466;-61
2023/03/30 10:58:58;;;;;;;5.70;2.77;;;;;;;18.02;61.22;100038.09;5055214;28;20421;-61
2023/03/30 11:01:35;;;;;;;8.83;3.27;;;;;;;18.03;61.40;100028.34;5051654;28;20521;-60
2023/03/30 11:04:22;;;;;;;10.70;2.53;;;;;;;18.04;61.37;100024.28;5073371;28;20398;-60
2023/03/30 11:06:47;;;;;;;4.60;2.37;;;;;;;18.06;60.99;100027.56;5040999;28;21102;-61
2023/03/30 11:09:15;;;;;;;8.20;2.60;;;;;;;18.06;61.07;100032.47;5035071;28;20390;-61
2023/03/30 11:12:02;;;;;;;7.00;3.23;;;;;;;18.07;61.36;100034.91;5048363;28;20274;-60
2023/03/30 11:15:09;;;;;;;7.60;2.63;;;;;;;18.07;61.15;100040.63;5069781;28;20574;-61
2023/03/30 11:17:58;;;;;;;9.07;2.77;;;;;;;18.07;60.99;100046.34;4956077;28;20966;-61
2023/03/30 11:20:26;;;;;;;7.40;2.50;;;;;;;18.05;61.37;100045.91;4934726;28;20488;-60
2023/03/30 11:23:07;;;;;;;12.03;2.90;;;;;;;18.05;61.38;100037.34;5014986;28;20441;-61
2023/03/30 11:25:35;;;;;;;10.67;2.80;;;;;;;18.05;61.09;100037.34;5052895;28;20418;-61
2023/03/30 11:28:00;;;;;;;8.03;2.43;;;;;;;18.05;61.17;100040.22;5007800;28;20446;-62
2023/03/30 11:30:28;;;;;;;6.70;3.57;;;;;;;18.06;61.47;100050.41;5052622;28;20459;-60
2023/03/30 11:33:16;;;;;;;6.90;2.60;;;;;;;18.07;61.56;100045.53;5018344;28;20164;-60
2023/03/30 11:35:56;;;;;;;4.50;2.10;;;;;;;18.07;61.45;100049.19;5054681;28;20429;-61
2023/03/30 11:38:32;;;;;;;7.93;2.43;;;;;;;18.05;61.31;100047.94;5017629;28;20534;-62
2023/03/30 11:41:05;;;;;;;7.30;2.80;;;;;;;18.05;60.97;100047.94;5023290;28;20487;-62